Pagina principale
METAR-TAF:

METAR-TAF

Aeroporti :

Thule, Groenlandia

Base aerea Thule

latitudine: 76-32N, longitudine: 068-42W, altezza: 77 m

Osservazione

Il bollettino è stato emesso 59 minuti fa, alle 18:56 UTC
Vento 4 kt da est/sud-est
Temperature -22°C
Umidità 64%
Pressione 1008 hPa
Visibilità 10 km o più
Cielo sereno

METAR: BGTL 221856Z AUTO 12004KT 9999 CLR M22/M27 A2977 RMK AO2 SLP073 T12211268 TSNO $

Ora: 15:55 (19:55 UTC)

Previsione

Il bollettino è stato emesso 1 ora e 55 minuti fa, alle 18:00 UTC
Previsione valida dal 22 alle 18 UTC al 23 alle 24 UTC
Vento 6 kt da est/sud-est
Visibilità 10 km o più
Poco nuvoloso ad un'altezza di 10000 ft

TAF: BGTL 221800Z 2218/2324 12006KT 9999 FEW100 QNH2962INS TXM21/2220Z TNM25/2310Z

Osservazioni e previsioni meteorologiche di più di 4000 aeroporti (messaggi METAR e TAF).

Le stazioni disponibili sono rappresentate dai dischi gialli e rossi sulla carta.

Puntare il mouse per vedere il nome della stazione.

Clicca sopra per visualizzare le osservazioni e previsioni meteorologiche.

Per cambiare la mappa : fare clic sui pulsanti verdi con una croce nera per ingrandire, il pulsante verde con un trattino per diminuire, o sulla freccia verde per le mappe adiacenti.


METAR-TAF: